sensor_id;sensor_type;location;lat;lon;timestamp;pressure;altitude;pressure_sealevel;temperature;humidity
10482;BME280;5288;42.334;23.876;2023-07-31T00:01:48;55877.53;;;-140.56;65.49
10482;BME280;5288;42.334;23.876;2023-07-31T00:04:15;55847.88;;;-140.56;64.81
10482;BME280;5288;42.334;23.876;2023-07-31T00:06:42;55873.56;;;-140.56;65.55
10482;BME280;5288;42.334;23.876;2023-07-31T00:09:09;55851.84;;;-140.56;65.15
10482;BME280;5288;42.334;23.876;2023-07-31T00:11:36;55851.84;;;-140.56;64.49
10482;BME280;5288;42.334;23.876;2023-07-31T00:14:04;55853.81;;;-140.56;65.12
10482;BME280;5288;42.334;23.876;2023-07-31T00:16:31;55855.78;;;-140.56;65.27
10482;BME280;5288;42.334;23.876;2023-07-31T00:18:58;55832.06;;;-140.56;65.25
10482;BME280;5288;42.334;23.876;2023-07-31T00:21:25;55859.75;;;-140.56;65.33
10482;BME280;5288;42.334;23.876;2023-07-31T00:23:52;55869.63;;;-140.56;64.51
10482;BME280;5288;42.334;23.876;2023-07-31T00:26:19;55875.53;;;-140.56;66.63
10482;BME280;5288;42.334;23.876;2023-07-31T00:28:46;55889.38;;;-140.56;72.38
10482;BME280;5288;42.334;23.876;2023-07-31T00:31:14;55903.22;;;-140.56;73.98
10482;BME280;5288;42.334;23.876;2023-07-31T00:33:41;55887.41;;;-140.56;81.88
10482;BME280;5288;42.334;23.876;2023-07-31T00:36:08;55922.97;;;-140.56;89.22
10482;BME280;5288;42.334;23.876;2023-07-31T00:38:35;55946.69;;;-140.56;92.67
10482;BME280;5288;42.334;23.876;2023-07-31T00:41:02;55938.78;;;-140.56;94.71
10482;BME280;5288;42.334;23.876;2023-07-31T00:43:29;55946.69;;;-140.56;95.30
10482;BME280;5288;42.334;23.876;2023-07-31T00:45:56;55915.06;;;-140.56;97.27
10482;BME280;5288;42.334;23.876;2023-07-31T00:48:25;55907.16;;;-140.56;97.52
10482;BME280;5288;42.334;23.876;2023-07-31T00:50:52;55895.31;;;-140.56;96.08
10482;BME280;5288;42.334;23.876;2023-07-31T00:53:27;55907.16;;;-140.56;95.01
10482;BME280;5288;42.334;23.876;2023-07-31T00:55:54;55922.97;;;-140.56;94.77
10482;BME280;5288;42.334;23.876;2023-07-31T00:58:21;55909.13;;;-140.56;95.90
10482;BME280;5288;42.334;23.876;2023-07-31T01:00:48;55926.94;;;-140.56;96.18
10482;BME280;5288;42.334;23.876;2023-07-31T01:03:15;55881.47;;;-140.56;95.30
10482;BME280;5288;42.334;23.876;2023-07-31T01:05:52;55907.16;;;-140.56;96.35
10482;BME280;5288;42.334;23.876;2023-07-31T01:08:28;55930.88;;;-140.56;94.96
10482;BME280;5288;42.334;23.876;2023-07-31T01:11:05;55899.25;;;-140.56;95.84
10482;BME280;5288;42.334;23.876;2023-07-31T01:13:34;55889.38;;;-140.56;96.81
10482;BME280;5288;42.334;23.876;2023-07-31T01:16:01;55921.00;;;-140.56;95.98
10482;BME280;5288;42.334;23.876;2023-07-31T01:18:28;55909.13;;;-140.56;96.18
10482;BME280;5288;42.334;23.876;2023-07-31T01:21:06;55930.88;;;-140.56;96.13
10482;BME280;5288;42.334;23.876;2023-07-31T01:23:56;55930.88;;;-140.56;100.00
10482;BME280;5288;42.334;23.876;2023-07-31T01:26:34;55922.97;;;-140.56;100.00
10482;BME280;5288;42.334;23.876;2023-07-31T01:29:08;55952.63;;;-140.56;100.00
10482;BME280;5288;42.334;23.876;2023-07-31T01:31:37;55921.00;;;-140.56;100.00
10482;BME280;5288;42.334;23.876;2023-07-31T01:34:06;55934.81;;;-140.56;100.00
10482;BME280;5288;42.334;23.876;2023-07-31T01:36:35;55907.16;;;-140.56;100.00
10482;BME280;5288;42.334;23.876;2023-07-31T01:39:02;55940.75;;;-140.56;100.00
10482;BME280;5288;42.334;23.876;2023-07-31T01:41:31;55936.81;;;-140.56;100.00
10482;BME280;5288;42.334;23.876;2023-07-31T01:43:58;55946.69;;;-140.56;100.00
10482;BME280;5288;42.334;23.876;2023-07-31T01:46:25;55956.56;;;-140.56;99.95
10482;BME280;5288;42.334;23.876;2023-07-31T01:48:52;55930.88;;;-140.56;100.00
10482;BME280;5288;42.334;23.876;2023-07-31T01:51:18;55936.81;;;-140.56;100.00
10482;BME280;5288;42.334;23.876;2023-07-31T01:53:45;55960.53;;;-140.56;99.39
10482;BME280;5288;42.334;23.876;2023-07-31T01:56:12;55950.63;;;-140.56;99.03
10482;BME280;5288;42.334;23.876;2023-07-31T01:58:41;55919.03;;;-140.56;98.07
10482;BME280;5288;42.334;23.876;2023-07-31T02:01:08;55926.94;;;-140.56;97.52
10482;BME280;5288;42.334;23.876;2023-07-31T02:03:35;55942.72;;;-140.56;96.98
10482;BME280;5288;42.334;23.876;2023-07-31T02:06:02;55928.91;;;-140.56;95.59
10482;BME280;5288;42.334;23.876;2023-07-31T02:08:29;55938.78;;;-140.56;95.33
10482;BME280;5288;42.334;23.876;2023-07-31T02:10:56;55895.31;;;-140.56;96.25
10482;BME280;5288;42.334;23.876;2023-07-31T02:13:23;55944.72;;;-140.56;97.45
10482;BME280;5288;42.334;23.876;2023-07-31T02:15:51;55958.53;;;-140.56;97.00
10482;BME280;5288;42.334;23.876;2023-07-31T02:18:18;55938.78;;;-140.56;98.38
10482;BME280;5288;42.334;23.876;2023-07-31T02:20:49;55936.81;;;-140.56;98.22
10482;BME280;5288;42.334;23.876;2023-07-31T02:23:16;55928.91;;;-140.56;97.14
10482;BME280;5288;42.334;23.876;2023-07-31T02:25:43;55944.72;;;-140.56;96.91
10482;BME280;5288;42.334;23.876;2023-07-31T02:28:10;55940.75;;;-140.56;96.32
10482;BME280;5288;42.334;23.876;2023-07-31T02:30:37;55934.81;;;-140.56;97.83
10482;BME280;5288;42.334;23.876;2023-07-31T02:33:06;55948.66;;;-140.56;100.00
10482;BME280;5288;42.334;23.876;2023-07-31T02:35:33;55938.78;;;-140.56;100.00
10482;BME280;5288;42.334;23.876;2023-07-31T02:37:59;55950.63;;;-140.56;100.00
10482;BME280;5288;42.334;23.876;2023-07-31T02:40:26;55934.81;;;-140.56;100.00
10482;BME280;5288;42.334;23.876;2023-07-31T02:42:53;55946.69;;;-140.56;100.00
10482;BME280;5288;42.334;23.876;2023-07-31T02:45:20;55986.22;;;-140.56;100.00
10482;BME280;5288;42.334;23.876;2023-07-31T02:47:47;55944.72;;;-140.56;100.00
10482;BME280;5288;42.334;23.876;2023-07-31T02:50:15;55950.63;;;-140.56;100.00
10482;BME280;5288;42.334;23.876;2023-07-31T02:52:42;55966.44;;;-140.56;100.00
10482;BME280;5288;42.334;23.876;2023-07-31T02:55:09;55938.78;;;-140.56;100.00
10482;BME280;5288;42.334;23.876;2023-07-31T02:57:37;55948.66;;;-140.56;100.00
10482;BME280;5288;42.334;23.876;2023-07-31T03:00:06;55950.63;;;-140.56;98.81
10482;BME280;5288;42.334;23.876;2023-07-31T03:02:33;55913.09;;;-140.56;96.43
10482;BME280;5288;42.334;23.876;2023-07-31T03:05:00;55934.81;;;-140.56;94.91
10482;BME280;5288;42.334;23.876;2023-07-31T03:07:28;55915.06;;;-140.56;93.28
10482;BME280;5288;42.334;23.876;2023-07-31T03:09:56;55942.72;;;-140.56;92.59
10482;BME280;5288;42.334;23.876;2023-07-31T03:12:23;55942.72;;;-140.56;91.71
10482;BME280;5288;42.334;23.876;2023-07-31T03:14:50;55952.63;;;-140.56;91.69
10482;BME280;5288;42.334;23.876;2023-07-31T03:17:17;55954.59;;;-140.56;92.11
10482;BME280;5288;42.334;23.876;2023-07-31T03:19:44;55938.78;;;-140.56;92.13
10482;BME280;5288;42.334;23.876;2023-07-31T03:22:10;55956.56;;;-140.56;93.78
10482;BME280;5288;42.334;23.876;2023-07-31T03:24:39;55994.13;;;-140.56;96.02
10482;BME280;5288;42.334;23.876;2023-07-31T03:27:06;55924.94;;;-140.56;96.76
10482;BME280;5288;42.334;23.876;2023-07-31T03:29:33;55966.44;;;-140.56;96.91
10482;BME280;5288;42.334;23.876;2023-07-31T03:32:00;55950.63;;;-140.56;96.30
10482;BME280;5288;42.334;23.876;2023-07-31T03:34:27;55936.81;;;-140.56;95.88
10482;BME280;5288;42.334;23.876;2023-07-31T03:36:54;55932.84;;;-140.56;95.10
10482;BME280;5288;42.334;23.876;2023-07-31T03:39:20;55940.75;;;-140.56;94.07
10482;BME280;5288;42.334;23.876;2023-07-31T03:41:49;55948.66;;;-140.56;94.28
10482;BME280;5288;42.334;23.876;2023-07-31T03:44:16;55952.63;;;-140.56;93.92
10482;BME280;5288;42.334;23.876;2023-07-31T03:46:43;55926.94;;;-140.56;94.02
10482;BME280;5288;42.334;23.876;2023-07-31T03:49:10;55946.69;;;-140.56;94.21
10482;BME280;5288;42.334;23.876;2023-07-31T03:51:37;55966.44;;;-140.56;93.52
10482;BME280;5288;42.334;23.876;2023-07-31T03:54:03;55936.81;;;-140.56;92.87
10482;BME280;5288;42.334;23.876;2023-07-31T03:56:30;55970.41;;;-140.56;93.66
10482;BME280;5288;42.334;23.876;2023-07-31T03:58:59;55950.63;;;-140.56;95.17
10482;BME280;5288;42.334;23.876;2023-07-31T04:01:26;55976.31;;;-140.56;95.89
10482;BME280;5288;42.334;23.876;2023-07-31T04:03:53;55934.81;;;-140.56;96.03
10482;BME280;5288;42.334;23.876;2023-07-31T04:06:20;55964.47;;;-140.56;95.90
10482;BME280;5288;42.334;23.876;2023-07-31T04:08:47;55964.47;;;-140.56;95.35
10482;BME280;5288;42.334;23.876;2023-07-31T04:11:14;55974.34;;;-140.56;96.50
10482;BME280;5288;42.334;23.876;2023-07-31T04:13:41;55938.78;;;-140.56;96.75
10482;BME280;5288;42.334;23.876;2023-07-31T04:16:09;55968.41;;;-140.56;97.46
10482;BME280;5288;42.334;23.876;2023-07-31T04:18:37;55946.69;;;-140.56;98.54
10482;BME280;5288;42.334;23.876;2023-07-31T04:21:04;55970.41;;;-140.56;100.00
10482;BME280;5288;42.334;23.876;2023-07-31T04:23:31;55970.41;;;-140.56;100.00
10482;BME280;5288;42.334;23.876;2023-07-31T04:25:58;56002.00;;;-140.56;100.00
10482;BME280;5288;42.334;23.876;2023-07-31T04:28:24;55984.22;;;-140.56;100.00
10482;BME280;5288;42.334;23.876;2023-07-31T04:30:51;55978.31;;;-140.56;100.00
10482;BME280;5288;42.334;23.876;2023-07-31T04:33:20;55984.22;;;-140.56;100.00
10482;BME280;5288;42.334;23.876;2023-07-31T04:35:51;55972.38;;;-140.56;100.00
10482;BME280;5288;42.334;23.876;2023-07-31T04:38:18;55982.25;;;-140.56;100.00
10482;BME280;5288;42.334;23.876;2023-07-31T04:40:45;55970.41;;;-140.56;100.00
10482;BME280;5288;42.334;23.876;2023-07-31T04:43:12;55980.28;;;-140.56;100.00
10482;BME280;5288;42.334;23.876;2023-07-31T04:45:39;55996.09;;;-140.56;100.00
10482;BME280;5288;42.334;23.876;2023-07-31T04:48:08;55976.31;;;-140.56;100.00
10482;BME280;5288;42.334;23.876;2023-07-31T04:50:37;55942.72;;;-140.56;100.00
10482;BME280;5288;42.334;23.876;2023-07-31T04:53:03;55990.16;;;-140.56;100.00
10482;BME280;5288;42.334;23.876;2023-07-31T04:55:30;55976.31;;;-140.56;100.00
10482;BME280;5288;42.334;23.876;2023-07-31T04:57:58;55974.34;;;-140.56;100.00
10482;BME280;5288;42.334;23.876;2023-07-31T05:00:25;55950.63;;;-140.56;100.00
10482;BME280;5288;42.334;23.876;2023-07-31T05:02:52;55974.34;;;-140.56;99.97
10482;BME280;5288;42.334;23.876;2023-07-31T05:05:19;55952.63;;;-140.56;100.00
10482;BME280;5288;42.334;23.876;2023-07-31T05:07:47;55980.28;;;-140.56;100.00
10482;BME280;5288;42.334;23.876;2023-07-31T05:10:15;55948.66;;;-140.56;100.00
10482;BME280;5288;42.334;23.876;2023-07-31T05:12:42;55978.31;;;-140.56;100.00
10482;BME280;5288;42.334;23.876;2023-07-31T05:15:09;55986.22;;;-140.56;100.00
10482;BME280;5288;42.334;23.876;2023-07-31T05:17:36;55978.31;;;-140.56;100.00
10482;BME280;5288;42.334;23.876;2023-07-31T05:20:04;55954.59;;;-140.56;100.00
10482;BME280;5288;42.334;23.876;2023-07-31T05:22:31;55952.63;;;-140.56;100.00
10482;BME280;5288;42.334;23.876;2023-07-31T05:24:59;55940.75;;;-140.56;100.00
10482;BME280;5288;42.334;23.876;2023-07-31T05:27:26;55940.75;;;-140.56;100.00
10482;BME280;5288;42.334;23.876;2023-07-31T05:29:53;55934.81;;;-140.56;100.00
10482;BME280;5288;42.334;23.876;2023-07-31T05:32:20;55936.81;;;-140.56;100.00
10482;BME280;5288;42.334;23.876;2023-07-31T05:34:47;55954.59;;;-140.56;97.53
10482;BME280;5288;42.334;23.876;2023-07-31T05:37:14;55930.88;;;-140.56;94.19
10482;BME280;5288;42.334;23.876;2023-07-31T05:39:41;55915.06;;;-140.56;92.46
10482;BME280;5288;42.334;23.876;2023-07-31T05:42:09;55950.63;;;-140.56;89.75
10482;BME280;5288;42.334;23.876;2023-07-31T05:44:36;55940.75;;;-140.56;91.29
10482;BME280;5288;42.334;23.876;2023-07-31T05:47:03;55905.19;;;-140.56;91.11
10482;BME280;5288;42.334;23.876;2023-07-31T05:49:30;55909.13;;;-140.56;89.91
10482;BME280;5288;42.334;23.876;2023-07-31T05:51:57;55905.19;;;-140.56;88.51
10482;BME280;5288;42.334;23.876;2023-07-31T05:54:24;55922.97;;;-140.56;87.97
10482;BME280;5288;42.334;23.876;2023-07-31T05:56:51;55934.81;;;-140.56;88.19
10482;BME280;5288;42.334;23.876;2023-07-31T05:59:20;55919.03;;;-140.56;86.91
10482;BME280;5288;42.334;23.876;2023-07-31T06:01:46;55909.13;;;-140.56;87.42
10482;BME280;5288;42.334;23.876;2023-07-31T06:04:13;55928.91;;;-140.56;87.81
10482;BME280;5288;42.334;23.876;2023-07-31T06:06:40;55919.03;;;-140.56;85.38
10482;BME280;5288;42.334;23.876;2023-07-31T06:09:07;55899.25;;;-140.56;84.65
10482;BME280;5288;42.334;23.876;2023-07-31T06:11:34;55922.97;;;-140.56;82.96
10482;BME280;5288;42.334;23.876;2023-07-31T06:14:01;55911.13;;;-140.56;86.29
10482;BME280;5288;42.334;23.876;2023-07-31T06:16:29;55907.16;;;-140.56;87.64
10482;BME280;5288;42.334;23.876;2023-07-31T06:18:56;55891.34;;;-140.56;87.56
10482;BME280;5288;42.334;23.876;2023-07-31T06:21:23;55897.28;;;-140.56;84.44
10482;BME280;5288;42.334;23.876;2023-07-31T06:23:50;55938.78;;;-140.56;83.30
10482;BME280;5288;42.334;23.876;2023-07-31T06:26:17;55899.25;;;-140.56;83.78
10482;BME280;5288;42.334;23.876;2023-07-31T06:28:44;55940.75;;;-140.56;81.88
10482;BME280;5288;42.334;23.876;2023-07-31T06:31:11;55873.56;;;-140.56;80.29
10482;BME280;5288;42.334;23.876;2023-07-31T06:33:39;55895.31;;;-140.56;78.12
10482;BME280;5288;42.334;23.876;2023-07-31T06:36:06;55903.22;;;-140.56;79.17
10482;BME280;5288;42.334;23.876;2023-07-31T06:38:33;55889.38;;;-140.56;78.34
10482;BME280;5288;42.334;23.876;2023-07-31T06:41:00;55901.22;;;-140.56;77.43
10482;BME280;5288;42.334;23.876;2023-07-31T06:43:27;55891.34;;;-140.56;79.74
10482;BME280;5288;42.334;23.876;2023-07-31T06:45:54;55895.31;;;-140.56;78.79
10482;BME280;5288;42.334;23.876;2023-07-31T06:48:21;55891.34;;;-140.56;77.83
10482;BME280;5288;42.334;23.876;2023-07-31T06:50:49;55897.28;;;-140.56;76.89
10482;BME280;5288;42.334;23.876;2023-07-31T06:53:16;55909.13;;;-140.56;76.40
10482;BME280;5288;42.334;23.876;2023-07-31T06:55:43;55879.50;;;-140.56;77.34
10482;BME280;5288;42.334;23.876;2023-07-31T06:58:10;55867.63;;;-140.56;76.11
10482;BME280;5288;42.334;23.876;2023-07-31T07:00:37;55887.41;;;-140.56;74.93
10482;BME280;5288;42.334;23.876;2023-07-31T07:03:04;55873.56;;;-140.56;74.55
10482;BME280;5288;42.334;23.876;2023-07-31T07:05:31;55883.44;;;-140.56;73.30
10482;BME280;5288;42.334;23.876;2023-07-31T07:07:59;55861.72;;;-140.56;74.36
10482;BME280;5288;42.334;23.876;2023-07-31T07:10:26;55873.56;;;-140.56;75.44
10482;BME280;5288;42.334;23.876;2023-07-31T07:12:54;55857.75;;;-140.56;72.65
10482;BME280;5288;42.334;23.876;2023-07-31T07:15:21;55851.84;;;-140.56;71.22
10482;BME280;5288;42.334;23.876;2023-07-31T07:17:48;55847.88;;;-140.56;70.70
10482;BME280;5288;42.334;23.876;2023-07-31T07:20:15;55855.78;;;-140.56;69.78
10482;BME280;5288;42.334;23.876;2023-07-31T07:22:42;55853.81;;;-140.56;70.48
10482;BME280;5288;42.334;23.876;2023-07-31T07:25:10;55853.81;;;-140.56;66.59
10482;BME280;5288;42.334;23.876;2023-07-31T07:27:37;55861.72;;;-140.56;68.38
10482;BME280;5288;42.334;23.876;2023-07-31T07:30:05;55830.09;;;-140.56;69.08
10482;BME280;5288;42.334;23.876;2023-07-31T07:32:32;55875.53;;;-140.56;65.15
10482;BME280;5288;42.334;23.876;2023-07-31T07:34:59;55853.81;;;-140.56;64.04
10482;BME280;5288;42.334;23.876;2023-07-31T07:37:26;55871.59;;;-140.56;65.24
10482;BME280;5288;42.334;23.876;2023-07-31T07:39:53;55828.13;;;-140.56;62.22
10482;BME280;5288;42.334;23.876;2023-07-31T07:42:21;55839.97;;;-140.56;64.01
10482;BME280;5288;42.334;23.876;2023-07-31T07:44:48;55818.25;;;-140.56;60.83
10482;BME280;5288;42.334;23.876;2023-07-31T07:47:15;55865.66;;;-140.56;63.00
10482;BME280;5288;42.334;23.876;2023-07-31T07:49:42;55820.22;;;-140.56;62.90
10482;BME280;5288;42.334;23.876;2023-07-31T07:52:09;55824.16;;;-140.56;63.58
10482;BME280;5288;42.334;23.876;2023-07-31T07:54:36;55806.38;;;-140.56;61.98
10482;BME280;5288;42.334;23.876;2023-07-31T07:57:04;55861.72;;;-140.56;61.96
10482;BME280;5288;42.334;23.876;2023-07-31T07:59:32;55851.84;;;-140.56;62.51
10482;BME280;5288;42.334;23.876;2023-07-31T08:01:59;55857.75;;;-140.56;61.92
10482;BME280;5288;42.334;23.876;2023-07-31T08:04:26;55863.69;;;-140.56;62.50
10482;BME280;5288;42.334;23.876;2023-07-31T08:06:53;55861.72;;;-140.56;61.98
10482;BME280;5288;42.334;23.876;2023-07-31T08:09:20;55863.69;;;-140.56;61.89
10482;BME280;5288;42.334;23.876;2023-07-31T08:11:47;55822.19;;;-140.56;61.44
10482;BME280;5288;42.334;23.876;2023-07-31T08:14:13;55855.78;;;-140.56;61.58
10482;BME280;5288;42.334;23.876;2023-07-31T08:16:42;55814.28;;;-140.56;61.39
10482;BME280;5288;42.334;23.876;2023-07-31T08:19:09;55845.91;;;-140.56;60.03
10482;BME280;5288;42.334;23.876;2023-07-31T08:21:36;55851.84;;;-140.56;60.76
10482;BME280;5288;42.334;23.876;2023-07-31T08:24:03;55843.94;;;-140.56;63.43
10482;BME280;5288;42.334;23.876;2023-07-31T08:26:30;55867.63;;;-140.56;64.74
10482;BME280;5288;42.334;23.876;2023-07-31T08:28:57;55847.88;;;-140.56;63.48
10482;BME280;5288;42.334;23.876;2023-07-31T08:31:24;55857.75;;;-140.56;62.61
10482;BME280;5288;42.334;23.876;2023-07-31T08:33:53;55861.72;;;-140.56;64.04
10482;BME280;5288;42.334;23.876;2023-07-31T08:36:20;55828.13;;;-140.56;59.50
10482;BME280;5288;42.334;23.876;2023-07-31T08:38:47;55806.38;;;-140.56;59.83
10482;BME280;5288;42.334;23.876;2023-07-31T08:41:15;55820.22;;;-140.56;59.46
10482;BME280;5288;42.334;23.876;2023-07-31T08:43:43;55830.09;;;-140.56;58.48
10482;BME280;5288;42.334;23.876;2023-07-31T08:46:11;55838.00;;;-140.56;59.59
10482;BME280;5288;42.334;23.876;2023-07-31T08:48:41;55832.06;;;-140.56;57.47
10482;BME280;5288;42.334;23.876;2023-07-31T08:51:11;55812.31;;;-140.56;57.68
10482;BME280;5288;42.334;23.876;2023-07-31T08:53:38;55816.25;;;-140.56;56.56
10482;BME280;5288;42.334;23.876;2023-07-31T08:56:06;55834.06;;;-140.56;56.42
10482;BME280;5288;42.334;23.876;2023-07-31T08:58:34;55800.47;;;-140.56;57.27
10482;BME280;5288;42.334;23.876;2023-07-31T09:01:04;55804.41;;;-140.56;55.56
10482;BME280;5288;42.334;23.876;2023-07-31T09:03:33;55845.91;;;-140.56;53.75
10482;BME280;5288;42.334;23.876;2023-07-31T09:06:02;55857.75;;;-140.56;53.81
10482;BME280;5288;42.334;23.876;2023-07-31T09:08:33;55843.94;;;-140.56;54.39
10482;BME280;5288;42.334;23.876;2023-07-31T09:11:01;55838.00;;;-140.56;51.39
10482;BME280;5288;42.334;23.876;2023-07-31T09:13:29;55808.34;;;-140.56;54.00
10482;BME280;5288;42.334;23.876;2023-07-31T09:15:57;55826.16;;;-140.56;53.10
10482;BME280;5288;42.334;23.876;2023-07-31T09:18:24;55804.41;;;-140.56;53.60
10482;BME280;5288;42.334;23.876;2023-07-31T09:21:01;55838.00;;;-140.56;50.50
10482;BME280;5288;42.334;23.876;2023-07-31T09:23:42;55834.06;;;-140.56;49.18
10482;BME280;5288;42.334;23.876;2023-07-31T09:26:09;55806.38;;;-140.56;49.62
10482;BME280;5288;42.334;23.876;2023-07-31T09:28:36;55802.44;;;-140.56;48.55
10482;BME280;5288;42.334;23.876;2023-07-31T09:31:03;55820.22;;;-140.56;47.48
10482;BME280;5288;42.334;23.876;2023-07-31T09:33:30;55802.44;;;-140.56;47.59
10482;BME280;5288;42.334;23.876;2023-07-31T09:35:58;55770.81;;;-140.56;46.89
10482;BME280;5288;42.334;23.876;2023-07-31T09:38:26;55764.88;;;-140.56;46.67
10482;BME280;5288;42.334;23.876;2023-07-31T09:40:54;55751.06;;;-140.56;46.45
10482;BME280;5288;42.334;23.876;2023-07-31T09:43:22;55751.06;;;-140.56;45.28
10482;BME280;5288;42.334;23.876;2023-07-31T09:45:55;55745.13;;;-140.56;45.72
10482;BME280;5288;42.334;23.876;2023-07-31T09:48:23;55733.28;;;-140.56;44.58
10482;BME280;5288;42.334;23.876;2023-07-31T09:50:52;55768.84;;;-140.56;44.64
10482;BME280;5288;42.334;23.876;2023-07-31T09:53:19;55756.97;;;-140.56;46.24
10482;BME280;5288;42.334;23.876;2023-07-31T09:55:58;55756.97;;;-140.56;44.88
10482;BME280;5288;42.334;23.876;2023-07-31T09:58:27;55768.84;;;-140.56;44.95
10482;BME280;5288;42.334;23.876;2023-07-31T10:00:57;55749.06;;;-140.56;45.01
10482;BME280;5288;42.334;23.876;2023-07-31T10:03:25;55760.94;;;-140.56;42.23
10482;BME280;5288;42.334;23.876;2023-07-31T10:05:55;55751.06;;;-140.56;42.70
10482;BME280;5288;42.334;23.876;2023-07-31T10:08:28;55762.91;;;-140.56;42.87
10482;BME280;5288;42.334;23.876;2023-07-31T10:10:59;55733.28;;;-140.56;42.74
10482;BME280;5288;42.334;23.876;2023-07-31T10:13:28;55735.25;;;-140.56;42.41
10482;BME280;5288;42.334;23.876;2023-07-31T10:15:58;55755.00;;;-140.56;44.08
10482;BME280;5288;42.334;23.876;2023-07-31T10:18:26;55723.38;;;-140.56;42.06
10482;BME280;5288;42.334;23.876;2023-07-31T10:20:54;55751.06;;;-140.56;42.39
10482;BME280;5288;42.334;23.876;2023-07-31T10:23:23;55733.28;;;-140.56;42.77
10482;BME280;5288;42.334;23.876;2023-07-31T10:25:53;55760.94;;;-140.56;43.22
10482;BME280;5288;42.334;23.876;2023-07-31T10:28:22;55774.75;;;-140.56;43.74
10482;BME280;5288;42.334;23.876;2023-07-31T10:30:51;55762.91;;;-140.56;44.67
10482;BME280;5288;42.334;23.876;2023-07-31T10:33:19;55717.47;;;-140.56;44.83
10482;BME280;5288;42.334;23.876;2023-07-31T10:35:47;55758.97;;;-140.56;44.85
10482;BME280;5288;42.334;23.876;2023-07-31T10:38:14;55715.50;;;-140.56;44.98
10482;BME280;5288;42.334;23.876;2023-07-31T10:40:41;55689.81;;;-140.56;43.77
10482;BME280;5288;42.334;23.876;2023-07-31T10:43:08;55691.78;;;-140.56;42.16
10482;BME280;5288;42.334;23.876;2023-07-31T10:45:39;55689.81;;;-140.56;39.81
10482;BME280;5288;42.334;23.876;2023-07-31T10:48:07;55701.66;;;-140.56;39.02
10482;BME280;5288;42.334;23.876;2023-07-31T10:50:37;55709.56;;;-140.56;40.65
10482;BME280;5288;42.334;23.876;2023-07-31T10:53:05;55733.28;;;-140.56;40.63
10482;BME280;5288;42.334;23.876;2023-07-31T10:55:33;55703.63;;;-140.56;40.30
10482;BME280;5288;42.334;23.876;2023-07-31T10:58:07;55713.50;;;-140.56;39.43
10482;BME280;5288;42.334;23.876;2023-07-31T11:00:38;55662.13;;;-140.56;37.80
10482;BME280;5288;42.334;23.876;2023-07-31T11:03:06;55701.66;;;-140.56;39.59
10482;BME280;5288;42.334;23.876;2023-07-31T11:05:48;55735.25;;;-140.56;39.53
10482;BME280;5288;42.334;23.876;2023-07-31T11:08:17;55674.00;;;-140.56;40.28
10482;BME280;5288;42.334;23.876;2023-07-31T11:10:45;55739.19;;;-140.56;39.73
10482;BME280;5288;42.334;23.876;2023-07-31T11:13:13;55699.69;;;-140.56;40.06
10482;BME280;5288;42.334;23.876;2023-07-31T11:15:41;55705.59;;;-140.56;41.52
10482;BME280;5288;42.334;23.876;2023-07-31T11:18:08;55713.50;;;-140.56;41.17
10482;BME280;5288;42.334;23.876;2023-07-31T11:20:37;55681.91;;;-140.56;41.14
10482;BME280;5288;42.334;23.876;2023-07-31T11:23:07;55636.44;;;-140.56;38.33
10482;BME280;5288;42.334;23.876;2023-07-31T11:25:35;55652.25;;;-140.56;37.84
10482;BME280;5288;42.334;23.876;2023-07-31T11:28:06;55658.19;;;-140.56;39.36
10482;BME280;5288;42.334;23.876;2023-07-31T11:30:33;55670.03;;;-140.56;38.52
10482;BME280;5288;42.334;23.876;2023-07-31T11:33:05;55626.56;;;-140.56;38.83
10482;BME280;5288;42.334;23.876;2023-07-31T11:35:33;55654.22;;;-140.56;36.56
10482;BME280;5288;42.334;23.876;2023-07-31T11:38:01;55681.91;;;-140.56;36.31
10482;BME280;5288;42.334;23.876;2023-07-31T11:40:28;55701.66;;;-140.56;37.29
10482;BME280;5288;42.334;23.876;2023-07-31T11:42:59;55654.22;;;-140.56;37.57
10482;BME280;5288;42.334;23.876;2023-07-31T11:45:31;55642.38;;;-140.56;37.44
10482;BME280;5288;42.334;23.876;2023-07-31T11:47:58;55630.53;;;-140.56;35.81
10482;BME280;5288;42.334;23.876;2023-07-31T11:50:27;55658.19;;;-140.56;38.43
10482;BME280;5288;42.334;23.876;2023-07-31T11:52:57;55630.53;;;-140.56;36.74
10482;BME280;5288;42.334;23.876;2023-07-31T11:55:26;55664.13;;;-140.56;36.86
10482;BME280;5288;42.334;23.876;2023-07-31T11:57:57;55670.03;;;-140.56;37.10
10482;BME280;5288;42.334;23.876;2023-07-31T12:00:24;55693.75;;;-140.56;36.63
10482;BME280;5288;42.334;23.876;2023-07-31T12:02:52;55677.94;;;-140.56;36.30
10482;BME280;5288;42.334;23.876;2023-07-31T12:05:19;55638.41;;;-140.56;36.00
10482;BME280;5288;42.334;23.876;2023-07-31T12:07:51;55626.56;;;-140.56;35.90
10482;BME280;5288;42.334;23.876;2023-07-31T12:10:29;55626.56;;;-140.56;34.86
10482;BME280;5288;42.334;23.876;2023-07-31T12:13:00;55614.72;;;-140.56;36.26
10482;BME280;5288;42.334;23.876;2023-07-31T12:15:38;55585.06;;;-140.56;35.98
10482;BME280;5288;42.334;23.876;2023-07-31T12:18:08;55608.78;;;-140.56;34.78
10482;BME280;5288;42.334;23.876;2023-07-31T12:20:35;55606.81;;;-140.56;36.34
10482;BME280;5288;42.334;23.876;2023-07-31T12:23:03;55636.44;;;-140.56;35.41
10482;BME280;5288;42.334;23.876;2023-07-31T12:25:32;55640.41;;;-140.56;35.21
10482;BME280;5288;42.334;23.876;2023-07-31T12:28:04;55668.06;;;-140.56;36.74
10482;BME280;5288;42.334;23.876;2023-07-31T12:30:33;55670.03;;;-140.56;36.20
10482;BME280;5288;42.334;23.876;2023-07-31T12:33:04;55662.13;;;-140.56;37.06
10482;BME280;5288;42.334;23.876;2023-07-31T12:35:35;55642.38;;;-140.56;36.92
10482;BME280;5288;42.334;23.876;2023-07-31T12:38:04;55634.47;;;-140.56;35.76
10482;BME280;5288;42.334;23.876;2023-07-31T12:40:31;55664.13;;;-140.56;35.07
10482;BME280;5288;42.334;23.876;2023-07-31T12:43:01;55638.41;;;-140.56;34.94